Portada
METAR-TAF:

METAR-TAF

Aeropuertos :

Corona, California, Estados Unidos

latitud: 33-53-52N, longitud: 117-36-09W, altitud: 162 m

Observación

El informe se hizo hace 40 minutos, a las 08:56 UTC
Viento calma
Temperatura 9°C
Humedad 100%
Presión 1013 hPa
Visibilidad: 16.1 km
Cielo despejado

METAR: KAJO 040856Z AUTO 00000KT 10SM CLR 09/09 A2991 RMK AO2 SLP124 T00940089 56010

Hora: 02:36 (09:36 UTC)


TAF: falta

Observaciones y pronósticos meteorológicos de más de 4000 aeropuertos (mensajes METAR y TAF).

Los puntos amarillos y rojos representan las estaciones disponibles.

Ponga el ratón en el punto deseado para ver el nombre de la estación.

Haga clic para ver las observaciones y los pronósticos meteorológicos.

Para cambiar el mapa : haga clic en los botones verdes con una cruz de color negro para hacer un zoom, en el botón verde con un guión para alejar o en las flechas verdes para mapas adyacentes.


METAR-TAF: